Flight Track Log - Related Links

Times and Time Zones

All times are in EDT time to prevent confusion due to time zone crossing. See the N317FL flight status page for this flight to view local times or setup timezone preferences in your user account.

Time Position Orientation Groundspeed Altitude Reporting Facility
EDT Latitude Longitude Course Direction KTS MPH feet Rate Location/Type
Mon 12:20:27 PM 26.6422 -76.8097 299° West 404 465 9,500  Level Miami Center
Mon 12:21:27 PM 26.6839 -76.7378 57° Northeast 329 379 9,500 900 Level Miami Center
Mon 12:22:27 PM 26.7508 -76.7564 346° North 227 261 11,300 2,900 Climbing Miami Center
Mon 12:23:27 PM 26.7928 -76.8167 308° West 193 222 15,300 3,800 Climbing Miami Center
Mon 12:24:27 PM 26.8469 -76.8681 320° Northwest 228 262 18,900 2,900 Climbing Miami Center
Mon 12:25:00 PM 26.7552 -77.6270 299° West  Level FlightAware Approximate
Mon 12:25:27 PM 26.8992 -76.9122 323° Northwest 228 262 21,100  Level Miami Center
Mon 12:26:27 PM 26.9619 -76.9658 323° Northwest 244 281 23,100 2,000 Climbing Miami Center
Mon 12:27:27 PM 27.0203 -77.0150 323° Northwest 263 303 25,100 2,000 Climbing Miami Center
Mon 12:28:27 PM 27.0869 -77.0617 328° Northwest 278 320 27,100 2,050 Climbing Miami Center
Mon 12:29:27 PM 27.1517 -77.1156 323° Northwest 289 333 29,200 2,050 Climbing Miami Center
Mon 12:30:27 PM 27.2206 -77.1694 325° Northwest 295 339 31,200 2,000 Climbing Miami Center
Mon 12:31:27 PM 27.2894 -77.2164 329° Northwest 295 339 33,200 1,750 Climbing Miami Center
Mon 12:32:27 PM 27.3331 -77.2958 302° West 295 339 34,700 1,500 Climbing Miami Center
Mon 12:33:27 PM 27.3744 -77.3850 298° West 300 345 36,200 1,500 Climbing Miami Center
Mon 12:34:27 PM 27.4119 -77.4600 299° West 300 345 37,700 1,300 Climbing Miami Center
Mon 12:35:27 PM 27.4450 -77.5467 293° West 300 345 38,800 1,100 Climbing Miami Center
Mon 12:36:27 PM 27.4819 -77.6314 296° West 306 352 39,900 979 Climbing Miami Center
Mon 12:41:47 PM 27.6860 -78.1240 296° West 310 357 45,000 850 Climbing FlightAware ADS-B
Mon 12:42:27 PM 27.7070 -78.1770 294° West 311 358 45,000  Level FlightAware ADS-B
Mon 12:43:07 PM 27.7360 -78.2450 296° West 332 382 45,000  Level FlightAware ADS-B
Mon 12:43:52 PM 27.7610 -78.3090 294° West 332 382 45,000  Level FlightAware ADS-B
Mon 12:44:37 PM 27.7950 -78.3900 295° West 345 397 45,000  Level FlightAware ADS-B
Mon 12:45:17 PM 27.8220 -78.4560 295° West 347 399 45,000  Level FlightAware ADS-B
Mon 12:46:02 PM 27.8520 -78.5300 295° West 350 403 45,000  Level FlightAware ADS-B
Mon 12:46:37 PM 27.8770 -78.5900 295° West 351 404 45,000  Level FlightAware ADS-B
Mon 12:47:22 PM 27.9070 -78.6640 295° West 353 406 45,000  Level FlightAware ADS-B
Mon 12:47:57 PM 27.9300 -78.7220 294° West 354 407 45,000  Level FlightAware ADS-B
Mon 12:48:47 PM 27.9620 -78.7990 295° West 355 409 45,000  Level FlightAware ADS-B
Mon 12:49:32 PM 27.9960 -78.8850 294° West 357 411 45,000  Level FlightAware ADS-B
Mon 12:50:12 PM 28.0230 -78.9510 295° West 357 411 45,000  Level FlightAware ADS-B
Mon 12:50:52 PM 28.0480 -79.0140 294° West 358 412 45,000  Level FlightAware ADS-B
Mon 12:51:37 PM 28.0810 -79.0970 294° West 359 413 45,000  Level FlightAware ADS-B
Mon 12:52:17 PM 28.1090 -79.1650 295° West 360 414 45,000  Level FlightAware ADS-B
Mon 12:53:02 PM 28.1400 -79.2430 294° West 359 413 45,000  Level FlightAware ADS-B
Mon 12:53:37 PM 28.1620 -79.2990 294° West 361 415 45,000  Level FlightAware ADS-B
Mon 12:54:22 PM 28.1890 -79.3660 295° West 361 415 45,000  Level FlightAware ADS-B
Mon 12:55:07 PM 28.2250 -79.4560 294° West 361 415 45,000  Level FlightAware ADS-B
Mon 12:56:02 PM 28.2620 -79.5500 294° West 361 415 45,000  Level FlightAware ADS-B
Mon 12:56:42 PM 28.2880 -79.6150 294° West 361 415 45,000  Level FlightAware ADS-B
Mon 12:57:27 PM 28.3220 -79.7010 294° West 361 415 45,000  Level FlightAware ADS-B
Mon 12:58:07 PM 28.3490 -79.7700 294° West 361 415 45,000  Level FlightAware ADS-B
Mon 12:58:47 PM 28.3760 -79.8390 294° West 359 413 45,000  Level FlightAware ADS-B
Mon 12:59:32 PM 28.4050 -79.9120 294° West 359 413 45,000  Level FlightAware ADS-B
Mon 01:00:12 PM 28.4340 -79.9850 294° West 359 413 45,000  Level FlightAware ADS-B
Mon 01:00:57 PM 28.4620 -80.0590 293° West 359 413 45,000  Level FlightAware ADS-B
Mon 01:01:37 PM 28.4920 -80.1330 295° West 359 413 45,000  Level FlightAware ADS-B
Mon 01:02:22 PM 28.5210 -80.2100 293° West 359 413 45,000  Level FlightAware ADS-B
Mon 01:03:02 PM 28.5490 -80.2800 294° West 359 413 45,000  Level FlightAware ADS-B
Mon 01:03:42 PM 28.5750 -80.3460 294° West 359 413 45,000  Level FlightAware ADS-B
Mon 01:04:27 PM 28.6050 -80.4260 293° West 359 413 45,000  Level FlightAware ADS-B
Mon 01:05:07 PM 28.6320 -80.4950 294° West 360 414 45,000  Level FlightAware ADS-B
Mon 01:05:47 PM 28.6590 -80.5630 294° West 361 415 45,000  Level FlightAware ADS-B
Mon 01:06:32 PM 28.6900 -80.6430 294° West 365 420 45,000  Level FlightAware ADS-B
Mon 01:07:12 PM 28.7370 -80.7010 313° West 382 440 45,000  Level FlightAware ADS-B
Mon 01:07:57 PM 28.8050 -80.7500 328° Northwest 382 440 45,000  Level FlightAware ADS-B
Mon 01:08:37 PM 28.8650 -80.7940 327° Northwest 383 441 45,000  Level FlightAware ADS-B
Mon 01:09:17 PM 28.9270 -80.8390 328° Northwest 385 443 45,000  Level FlightAware ADS-B
Mon 01:10:02 PM 28.9980 -80.8830 332° Northwest 397 457 45,000  Level FlightAware ADS-B
Mon 01:10:42 PM 29.0620 -80.9220 332° Northwest 389 448 45,000  Level FlightAware ADS-B
Mon 01:11:37 PM 29.1510 -80.9770 332° Northwest 388 447 45,000  Level FlightAware ADS-B
Mon 01:12:17 PM 29.2120 -81.0150 331° Northwest 388 447 45,000  Level FlightAware ADS-B
Mon 01:13:17 PM 29.3140 -81.0790 331° Northwest 386 444 45,000  Level FlightAware ADS-B
Mon 01:13:57 PM 29.3760 -81.1180 331° Northwest 386 444 45,000  Level FlightAware ADS-B
Mon 01:14:42 PM 29.4440 -81.1610 331° Northwest 386 444 45,000  Level FlightAware ADS-B
Mon 01:15:22 PM 29.5060 -81.2000 331° Northwest 387 445 45,000  Level FlightAware ADS-B
Mon 01:16:07 PM 29.5780 -81.2460 331° Northwest 386 444 45,000  Level FlightAware ADS-B
Mon 01:16:47 PM 29.6360 -81.2830 331° Northwest 388 447 45,000  Level FlightAware ADS-B
Mon 01:17:37 PM 29.7280 -81.3400 332° Northwest 387 445 45,000  Level FlightAware ADS-B
Mon 01:18:42 PM 29.8350 -81.4080 331° Northwest 395 455 45,000  Level FlightAware ADS-B
Mon 01:19:32 PM 29.9140 -81.4570 332° Northwest 396 456 45,000  Level FlightAware ADS-B
Mon 01:20:17 PM 29.9870 -81.5040 331° Northwest 395 455 45,000  Level FlightAware ADS-B
Mon 01:20:57 PM 30.0510 -81.5440 332° Northwest 392 451 45,000  Level FlightAware ADS-B
Mon 01:21:42 PM 30.1200 -81.5890 331° Northwest 391 450 45,000  Level FlightAware ADS-B
Mon 01:22:37 PM 30.2030 -81.6420 331° Northwest 389 448 45,000  Level FlightAware ADS-B
Mon 01:23:12 PM 30.2510 -81.6730 331° Northwest 389 448 45,000  Level FlightAware ADS-B
Mon 01:23:57 PM 30.3380 -81.7280 331° Northwest 390 449 45,000  Level FlightAware ADS-B
Mon 01:24:42 PM 30.3990 -81.7690 330° Northwest 390 449 45,000  Level FlightAware ADS-B
Mon 01:25:22 PM 30.4520 -81.8040 330° Northwest 390 449 45,000  Level FlightAware ADS-B
Mon 01:26:12 PM 30.5460 -81.8630 332° Northwest 391 450 45,000  Level FlightAware ADS-B
Mon 01:26:52 PM 30.6130 -81.9050 332° Northwest 391 450 45,000  Level FlightAware ADS-B
Mon 01:27:32 PM 30.6700 -81.9430 330° Northwest 392 451 45,000  Level FlightAware ADS-B
Mon 01:28:12 PM 30.7230 -81.9790 330° Northwest 392 451 45,000  Level FlightAware ADS-B
Mon 01:28:52 PM 30.7770 -82.0150 330° Northwest 392 451 45,000  Level FlightAware ADS-B
Mon 01:29:42 PM 30.8430 -82.0600 330° Northwest 392 451 45,000  Level FlightAware ADS-B
Mon 01:30:22 PM 30.8970 -82.0960 330° Northwest 392 451 45,000  Level FlightAware ADS-B
Mon 01:31:02 PM 30.9500 -82.1320 330° Northwest 392 451 45,000  Level FlightAware ADS-B
Mon 01:31:42 PM 31.0040 -82.1680 330° Northwest 392 451 45,000  Level FlightAware ADS-B
Mon 01:32:22 PM 31.0570 -82.2040 330° Northwest 392 451 45,000  Level FlightAware ADS-B
Mon 01:33:02 PM 31.1100 -82.2400 330° Northwest 392 451 45,000  Level FlightAware ADS-B
Mon 01:33:52 PM 31.1770 -82.2850 330° Northwest 392 451 45,000  Level FlightAware ADS-B
Mon 01:34:32 PM 31.2310 -82.3210 330° Northwest 392 451 45,000  Level FlightAware ADS-B
Mon 01:35:12 PM 31.2840 -82.3570 330° Northwest 392 451 45,000  Level FlightAware ADS-B
Mon 01:35:52 PM 31.3370 -82.3930 330° Northwest 392 451 45,000  Level FlightAware ADS-B
Mon 01:36:42 PM 31.4040 -82.4380 330° Northwest 392 451 45,000  Level FlightAware ADS-B
Mon 01:37:29 PM 31.6108 -82.5831 330° Northwest 393 452 45,000  Level Atlanta Center
Mon 01:38:29 PM 31.6950 -82.6647 320° Northwest 393 452 45,000  Level Atlanta Center
Mon 01:39:29 PM 31.7794 -82.7464 321° Northwest 388 447 45,000  Level Atlanta Center
Mon 01:40:29 PM 31.8639 -82.8283 321° Northwest 388 447 45,000  Level Atlanta Center
Mon 01:41:29 PM 31.9461 -82.9131 319° Northwest 388 447 45,000  Level Atlanta Center
Mon 01:47:07 PM 32.4260 -83.3820 319° Northwest 386 444 45,000 -94 Level FlightAware ADS-B
Mon 01:47:52 PM 32.4890 -83.4450 320° Northwest 402 463 44,400 -783 Descending FlightAware ADS-B
Mon 01:49:02 PM 32.5880 -83.5440 320° Northwest 404 465 43,500 -491 Descending FlightAware ADS-B
Mon 01:49:42 PM 32.6350 -83.5940 318° Northwest 404 465 43,500 -1,133 Level FlightAware ADS-B
Mon 01:50:32 PM 32.7140 -83.6700 321° Northwest 384 442 41,800 -1,453 Descending FlightAware ADS-B
Mon 01:51:17 PM 32.7820 -83.7230 327° Northwest 391 450 41,200 -1,988 Descending FlightAware ADS-B
Mon 01:53:12 PM 32.9580 -83.8690 325° Northwest 398 458 36,500 -2,361 Descending FlightAware ADS-B
Mon 01:53:52 PM 33.0200 -83.9210 325° Northwest 400 460 35,100 -2,188 Descending FlightAware ADS-B
Mon 01:54:37 PM 33.0890 -83.9790 325° Northwest 409 471 33,400 -2,188 Descending FlightAware ADS-B
Mon 01:55:17 PM 33.1500 -84.0300 325° Northwest 400 460 32,000 -2,118 Descending FlightAware ADS-B
Mon 01:56:02 PM 33.2180 -84.0870 325° Northwest 393 452 30,400 -2,100 Descending FlightAware ADS-B
Mon 01:56:37 PM 33.2710 -84.1310 325° Northwest 383 441 29,200 -2,000 Descending FlightAware ADS-B
Mon 01:57:17 PM 33.3290 -84.1800 325° Northwest 385 443 27,900 -2,000 Descending FlightAware ADS-B
Mon 01:58:07 PM 33.4000 -84.2410 324° Northwest 390 449 26,200 -2,067 Descending FlightAware ADS-B
Mon 01:58:47 PM 33.4590 -84.2910 325° Northwest 382 440 24,800 -1,553 Descending FlightAware ADS-B
Mon 01:59:32 PM 33.5230 -84.3440 325° Northwest 375 432 24,000 -565 Descending FlightAware ADS-B
Mon 02:00:12 PM 33.5810 -84.3940 324° Northwest 373 429 24,000  Level FlightAware ADS-B
Mon 02:00:52 PM 33.6350 -84.4380 326° Northwest 375 432 24,000  Level FlightAware ADS-B
Mon 02:01:37 PM 33.7120 -84.4790 336° Northwest 372 428 24,000 -282 Level FlightAware ADS-B
Mon 02:02:17 PM 33.7760 -84.5140 336° Northwest 370 426 23,600 -847 Descending FlightAware ADS-B
Mon 02:03:02 PM 33.8450 -84.5510 336° Northwest 352 405 22,800 -1,059 Descending FlightAware ADS-B
Mon 02:03:42 PM 33.9050 -84.5830 336° Northwest 353 406 22,100 -975 Descending FlightAware ADS-B
Mon 02:04:22 PM 33.9630 -84.6150 335° Northwest 340 391 21,500 -1,034 Descending FlightAware ADS-B
Mon 02:04:40 PM 33.9968 -84.6332 336° Northwest 346 398 21,100 -1,102 Descending FlightAware ADS-B
Mon 02:05:11 PM 34.0413 -84.6573 336° Northwest 342 394 20,600 -896 Descending FlightAware ADS-B
Mon 02:05:47 PM 34.0870 -84.6820 336° Northwest 339 390 20,100 -444 Descending FlightAware ADS-B
Mon 02:06:32 PM 34.1500 -84.7170 335° Northwest 338 389 20,000 -71 Descending FlightAware ADS-B
Mon 02:07:12 PM 34.2080 -84.7480 336° Northwest 340 391 20,000 -94 Level FlightAware ADS-B
Mon 02:07:36 PM 34.2504 -84.7711 336° Northwest 339 390 19,900 -1,200 Descending FlightAware ADS-B
Mon 02:08:07 PM 34.2941 -84.7949 336° Northwest 331 381 18,900 -1,875 Descending FlightAware ADS-B
Mon 02:08:40 PM 34.3396 -84.8197 336° Northwest 325 374 17,900 -1,969 Descending FlightAware ADS-B
Mon 02:09:11 PM 34.3811 -84.8424 336° Northwest 320 368 16,800 -2,066 Descending FlightAware ADS-B
Mon 02:09:41 PM 34.4218 -84.8647 336° Northwest 316 364 15,800 -2,000 Descending FlightAware ADS-B
Mon 02:10:26 PM 34.4812 -84.8973 336° Northwest 308 354 14,300 -1,737 Descending FlightAware ADS-B
Mon 02:10:57 PM 34.5080 -84.9120 336° Northwest 305 351 13,600 -1,859 Descending FlightAware ADS-B
Mon 02:11:37 PM 34.5640 -84.9430 335° Northwest 300 345 12,100 -1,733 Descending FlightAware ADS-B
Mon 02:14:42 PM 34.7720 -85.0960 329° Northwest 286 329 7,100 -1,725 Descending FlightAware ADS-B
Mon 02:15:37 PM 34.8280 -85.1570 318° Northwest 280 322 5,200 -2,187 Descending FlightAware ADS-B
Mon 02:16:29 PM 34.8739 -85.2033 318° Northwest 278 320 3,200 -1,500 Descending Atlanta Center
Mon 02:17:29 PM 34.9322 -85.2397 333° Northwest 255 293 2,400 -750 Descending Atlanta Center
Mon 02:18:29 PM 34.9719 -85.2250 17° North 198 228 1,700 -650 Descending Atlanta Center
Mon 02:19:29 PM 35.0075 -85.2153 13° North 148 170 1,100 -600 Descending Atlanta Center
Mon 02:21:00 PM 35.0333 -85.2000 331° Northwest  Level FlightAware Approximate

Login

Don't have an account? Register now (free) for customized features, flight alerts, and more!